sensor_id;sensor_type;location;lat;lon;timestamp;P1;durP1;ratioP1;P2;durP2;ratioP2
37903;SDS011;23738;50.422;18.758;2022-08-14T00:01:45;9.30;;;8.50;;
37903;SDS011;23738;50.422;18.758;2022-08-14T00:04:11;9.75;;;8.98;;
37903;SDS011;23738;50.422;18.758;2022-08-14T00:06:37;9.58;;;8.70;;
37903;SDS011;23738;50.422;18.758;2022-08-14T00:09:02;9.88;;;8.98;;
37903;SDS011;23738;50.422;18.758;2022-08-14T00:11:28;11.45;;;8.70;;
37903;SDS011;23738;50.422;18.758;2022-08-14T00:13:54;9.60;;;8.58;;
37903;SDS011;23738;50.422;18.758;2022-08-14T00:16:21;9.58;;;8.80;;
37903;SDS011;23738;50.422;18.758;2022-08-14T00:18:47;10.58;;;9.10;;
37903;SDS011;23738;50.422;18.758;2022-08-14T00:21:13;9.50;;;8.55;;
37903;SDS011;23738;50.422;18.758;2022-08-14T00:23:39;8.98;;;8.18;;
37903;SDS011;23738;50.422;18.758;2022-08-14T00:26:05;8.23;;;7.53;;
37903;SDS011;23738;50.422;18.758;2022-08-14T00:28:32;9.28;;;8.50;;
37903;SDS011;23738;50.422;18.758;2022-08-14T00:30:59;9.90;;;8.83;;
37903;SDS011;23738;50.422;18.758;2022-08-14T00:33:25;10.10;;;9.18;;
37903;SDS011;23738;50.422;18.758;2022-08-14T00:35:53;9.85;;;8.93;;
37903;SDS011;23738;50.422;18.758;2022-08-14T00:38:20;8.45;;;7.65;;
37903;SDS011;23738;50.422;18.758;2022-08-14T00:40:46;11.10;;;8.15;;
37903;SDS011;23738;50.422;18.758;2022-08-14T00:43:12;9.55;;;8.25;;
37903;SDS011;23738;50.422;18.758;2022-08-14T00:45:39;10.48;;;9.50;;
37903;SDS011;23738;50.422;18.758;2022-08-14T00:48:05;9.13;;;8.43;;
37903;SDS011;23738;50.422;18.758;2022-08-14T00:50:31;13.50;;;9.13;;
37903;SDS011;23738;50.422;18.758;2022-08-14T00:52:57;9.60;;;8.80;;
37903;SDS011;23738;50.422;18.758;2022-08-14T00:55:25;13.70;;;8.45;;
37903;SDS011;23738;50.422;18.758;2022-08-14T00:57:53;9.85;;;8.90;;
37903;SDS011;23738;50.422;18.758;2022-08-14T01:00:38;8.78;;;8.08;;
37903;SDS011;23738;50.422;18.758;2022-08-14T01:03:05;9.00;;;8.30;;
37903;SDS011;23738;50.422;18.758;2022-08-14T01:05:33;10.25;;;9.23;;
37903;SDS011;23738;50.422;18.758;2022-08-14T01:07:59;8.70;;;7.90;;
37903;SDS011;23738;50.422;18.758;2022-08-14T01:10:28;9.50;;;8.40;;
37903;SDS011;23738;50.422;18.758;2022-08-14T01:13:13;9.17;;;8.47;;
37903;SDS011;23738;50.422;18.758;2022-08-14T01:15:45;9.25;;;8.48;;
37903;SDS011;23738;50.422;18.758;2022-08-14T01:18:13;10.30;;;9.38;;
37903;SDS011;23738;50.422;18.758;2022-08-14T01:20:58;8.53;;;7.72;;
37903;SDS011;23738;50.422;18.758;2022-08-14T01:23:28;8.70;;;7.90;;
37903;SDS011;23738;50.422;18.758;2022-08-14T01:25:56;8.88;;;7.97;;
37903;SDS011;23738;50.422;18.758;2022-08-14T01:28:23;10.30;;;9.15;;
37903;SDS011;23738;50.422;18.758;2022-08-14T01:30:53;9.23;;;8.40;;
37903;SDS011;23738;50.422;18.758;2022-08-14T01:33:21;8.50;;;7.45;;
37903;SDS011;23738;50.422;18.758;2022-08-14T01:35:50;8.60;;;7.70;;
37903;SDS011;23738;50.422;18.758;2022-08-14T01:38:16;9.20;;;7.80;;
37903;SDS011;23738;50.422;18.758;2022-08-14T01:40:44;9.78;;;8.63;;
37903;SDS011;23738;50.422;18.758;2022-08-14T01:43:12;10.15;;;8.90;;
37903;SDS011;23738;50.422;18.758;2022-08-14T01:45:41;10.70;;;9.23;;
37903;SDS011;23738;50.422;18.758;2022-08-14T01:48:10;9.33;;;8.43;;
37903;SDS011;23738;50.422;18.758;2022-08-14T01:50:37;11.28;;;8.25;;
37903;SDS011;23738;50.422;18.758;2022-08-14T01:53:03;9.48;;;8.58;;
37903;SDS011;23738;50.422;18.758;2022-08-14T01:55:29;8.65;;;7.78;;
37903;SDS011;23738;50.422;18.758;2022-08-14T01:57:58;9.53;;;8.73;;
37903;SDS011;23738;50.422;18.758;2022-08-14T02:00:25;9.98;;;9.08;;
37903;SDS011;23738;50.422;18.758;2022-08-14T02:02:51;9.38;;;8.50;;
37903;SDS011;23738;50.422;18.758;2022-08-14T02:05:17;8.80;;;7.92;;
37903;SDS011;23738;50.422;18.758;2022-08-14T02:07:43;8.48;;;7.83;;
37903;SDS011;23738;50.422;18.758;2022-08-14T02:10:11;9.00;;;8.20;;
37903;SDS011;23738;50.422;18.758;2022-08-14T02:12:39;9.95;;;9.03;;
37903;SDS011;23738;50.422;18.758;2022-08-14T02:15:05;9.23;;;8.33;;
37903;SDS011;23738;50.422;18.758;2022-08-14T02:17:33;8.78;;;8.08;;
37903;SDS011;23738;50.422;18.758;2022-08-14T02:19:59;9.18;;;8.38;;
37903;SDS011;23738;50.422;18.758;2022-08-14T02:22:25;9.53;;;8.73;;
37903;SDS011;23738;50.422;18.758;2022-08-14T02:24:51;8.85;;;8.05;;
37903;SDS011;23738;50.422;18.758;2022-08-14T02:27:17;10.82;;;8.20;;
37903;SDS011;23738;50.422;18.758;2022-08-14T02:29:44;8.83;;;7.92;;
37903;SDS011;23738;50.422;18.758;2022-08-14T02:32:11;8.05;;;7.35;;
37903;SDS011;23738;50.422;18.758;2022-08-14T02:34:40;8.88;;;8.13;;
37903;SDS011;23738;50.422;18.758;2022-08-14T02:37:07;9.30;;;7.50;;
37903;SDS011;23738;50.422;18.758;2022-08-14T02:39:41;8.90;;;8.10;;
37903;SDS011;23738;50.422;18.758;2022-08-14T02:42:14;10.58;;;7.87;;
37903;SDS011;23738;50.422;18.758;2022-08-14T02:44:40;9.28;;;8.53;;
37903;SDS011;23738;50.422;18.758;2022-08-14T02:47:07;9.15;;;7.17;;
37903;SDS011;23738;50.422;18.758;2022-08-14T02:49:34;8.83;;;7.92;;
37903;SDS011;23738;50.422;18.758;2022-08-14T02:52:00;8.40;;;7.60;;
37903;SDS011;23738;50.422;18.758;2022-08-14T02:54:28;8.73;;;7.92;;
37903;SDS011;23738;50.422;18.758;2022-08-14T02:56:55;9.23;;;8.20;;
37903;SDS011;23738;50.422;18.758;2022-08-14T02:59:23;8.08;;;7.37;;
37903;SDS011;23738;50.422;18.758;2022-08-14T03:01:53;7.50;;;6.90;;
37903;SDS011;23738;50.422;18.758;2022-08-14T03:04:21;10.35;;;6.72;;
37903;SDS011;23738;50.422;18.758;2022-08-14T03:06:49;7.67;;;7.05;;
37903;SDS011;23738;50.422;18.758;2022-08-14T03:09:15;7.72;;;7.12;;
37903;SDS011;23738;50.422;18.758;2022-08-14T03:11:41;8.68;;;7.78;;
37903;SDS011;23738;50.422;18.758;2022-08-14T03:14:09;7.95;;;7.28;;
37903;SDS011;23738;50.422;18.758;2022-08-14T03:16:36;7.92;;;7.12;;
37903;SDS011;23738;50.422;18.758;2022-08-14T03:19:05;8.58;;;6.87;;
37903;SDS011;23738;50.422;18.758;2022-08-14T03:21:33;7.22;;;6.72;;
37903;SDS011;23738;50.422;18.758;2022-08-14T03:24:01;8.30;;;7.60;;
37903;SDS011;23738;50.422;18.758;2022-08-14T03:26:38;8.23;;;7.53;;
37903;SDS011;23738;50.422;18.758;2022-08-14T03:29:12;9.23;;;8.43;;
37903;SDS011;23738;50.422;18.758;2022-08-14T03:31:39;8.38;;;7.60;;
37903;SDS011;23738;50.422;18.758;2022-08-14T03:34:06;8.20;;;7.42;;
37903;SDS011;23738;50.422;18.758;2022-08-14T03:36:37;8.53;;;7.72;;
37903;SDS011;23738;50.422;18.758;2022-08-14T03:39:08;8.43;;;7.60;;
37903;SDS011;23738;50.422;18.758;2022-08-14T03:41:36;8.40;;;7.72;;
37903;SDS011;23738;50.422;18.758;2022-08-14T03:44:03;9.65;;;7.90;;
37903;SDS011;23738;50.422;18.758;2022-08-14T03:46:31;8.13;;;7.53;;
37903;SDS011;23738;50.422;18.758;2022-08-14T03:49:00;8.30;;;7.28;;
37903;SDS011;23738;50.422;18.758;2022-08-14T03:51:29;7.67;;;6.97;;
37903;SDS011;23738;50.422;18.758;2022-08-14T03:53:57;8.88;;;7.70;;
37903;SDS011;23738;50.422;18.758;2022-08-14T03:56:26;8.83;;;8.13;;
37903;SDS011;23738;50.422;18.758;2022-08-14T03:58:56;8.50;;;7.83;;
37903;SDS011;23738;50.422;18.758;2022-08-14T04:01:24;8.63;;;7.60;;
37903;SDS011;23738;50.422;18.758;2022-08-14T04:03:52;7.72;;;7.03;;
37903;SDS011;23738;50.422;18.758;2022-08-14T04:06:21;7.35;;;6.78;;
37903;SDS011;23738;50.422;18.758;2022-08-14T04:08:48;8.08;;;7.47;;
37903;SDS011;23738;50.422;18.758;2022-08-14T04:11:14;8.63;;;7.78;;
37903;SDS011;23738;50.422;18.758;2022-08-14T04:13:42;8.50;;;7.70;;
37903;SDS011;23738;50.422;18.758;2022-08-14T04:16:10;8.60;;;7.90;;
37903;SDS011;23738;50.422;18.758;2022-08-14T04:18:45;9.58;;;7.40;;
37903;SDS011;23738;50.422;18.758;2022-08-14T04:21:17;9.35;;;8.33;;
37903;SDS011;23738;50.422;18.758;2022-08-14T04:23:47;8.48;;;7.60;;
37903;SDS011;23738;50.422;18.758;2022-08-14T04:26:13;10.23;;;7.53;;
37903;SDS011;23738;50.422;18.758;2022-08-14T04:28:42;8.85;;;8.05;;
37903;SDS011;23738;50.422;18.758;2022-08-14T04:31:09;9.33;;;8.53;;
37903;SDS011;23738;50.422;18.758;2022-08-14T04:33:35;9.43;;;8.23;;
37903;SDS011;23738;50.422;18.758;2022-08-14T04:36:01;7.85;;;7.15;;
37903;SDS011;23738;50.422;18.758;2022-08-14T04:38:28;9.15;;;8.28;;
37903;SDS011;23738;50.422;18.758;2022-08-14T04:41:13;11.55;;;8.58;;
37903;SDS011;23738;50.422;18.758;2022-08-14T04:43:58;9.97;;;9.17;;
37903;SDS011;23738;50.422;18.758;2022-08-14T04:46:24;10.40;;;9.50;;
37903;SDS011;23738;50.422;18.758;2022-08-14T04:48:52;10.60;;;9.70;;
37903;SDS011;23738;50.422;18.758;2022-08-14T04:51:19;13.15;;;9.58;;
37903;SDS011;23738;50.422;18.758;2022-08-14T04:53:48;10.40;;;9.35;;
37903;SDS011;23738;50.422;18.758;2022-08-14T04:56:15;12.15;;;10.93;;
37903;SDS011;23738;50.422;18.758;2022-08-14T04:58:47;14.13;;;12.85;;
37903;SDS011;23738;50.422;18.758;2022-08-14T05:01:17;16.17;;;14.45;;
37903;SDS011;23738;50.422;18.758;2022-08-14T05:03:44;19.92;;;13.48;;
37903;SDS011;23738;50.422;18.758;2022-08-14T05:06:10;18.02;;;13.03;;
37903;SDS011;23738;50.422;18.758;2022-08-14T05:08:37;17.02;;;14.13;;
37903;SDS011;23738;50.422;18.758;2022-08-14T05:11:05;15.23;;;13.43;;
37903;SDS011;23738;50.422;18.758;2022-08-14T05:13:33;18.27;;;16.40;;
37903;SDS011;23738;50.422;18.758;2022-08-14T05:16:01;17.37;;;15.78;;
37903;SDS011;23738;50.422;18.758;2022-08-14T05:18:30;22.80;;;17.35;;
37903;SDS011;23738;50.422;18.758;2022-08-14T05:21:00;20.15;;;16.20;;
37903;SDS011;23738;50.422;18.758;2022-08-14T05:23:30;19.92;;;15.43;;
37903;SDS011;23738;50.422;18.758;2022-08-14T05:26:01;18.30;;;15.80;;
37903;SDS011;23738;50.422;18.758;2022-08-14T05:28:34;24.80;;;16.85;;
37903;SDS011;23738;50.422;18.758;2022-08-14T05:31:01;18.15;;;16.23;;
37903;SDS011;23738;50.422;18.758;2022-08-14T05:33:31;21.65;;;16.73;;
37903;SDS011;23738;50.422;18.758;2022-08-14T05:36:00;24.87;;;16.50;;
37903;SDS011;23738;50.422;18.758;2022-08-14T05:38:30;24.43;;;16.17;;
37903;SDS011;23738;50.422;18.758;2022-08-14T05:41:04;16.87;;;15.03;;
37903;SDS011;23738;50.422;18.758;2022-08-14T05:43:33;20.10;;;15.25;;
37903;SDS011;23738;50.422;18.758;2022-08-14T05:46:00;20.10;;;18.00;;
37903;SDS011;23738;50.422;18.758;2022-08-14T05:48:26;22.00;;;18.42;;
37903;SDS011;23738;50.422;18.758;2022-08-14T05:50:53;24.15;;;18.75;;
37903;SDS011;23738;50.422;18.758;2022-08-14T05:53:24;23.95;;;17.80;;
37903;SDS011;23738;50.422;18.758;2022-08-14T05:55:52;22.82;;;17.75;;
37903;SDS011;23738;50.422;18.758;2022-08-14T05:58:19;23.15;;;18.37;;
37903;SDS011;23738;50.422;18.758;2022-08-14T06:00:46;26.85;;;19.40;;
37903;SDS011;23738;50.422;18.758;2022-08-14T06:03:15;20.68;;;18.37;;
37903;SDS011;23738;50.422;18.758;2022-08-14T06:05:44;21.17;;;18.00;;
37903;SDS011;23738;50.422;18.758;2022-08-14T06:08:21;22.32;;;18.40;;
37903;SDS011;23738;50.422;18.758;2022-08-14T06:10:47;23.70;;;17.90;;
37903;SDS011;23738;50.422;18.758;2022-08-14T06:13:14;20.32;;;18.17;;
37903;SDS011;23738;50.422;18.758;2022-08-14T06:15:41;25.27;;;18.48;;
37903;SDS011;23738;50.422;18.758;2022-08-14T06:18:07;25.17;;;19.90;;
37903;SDS011;23738;50.422;18.758;2022-08-14T06:20:33;26.27;;;21.37;;
37903;SDS011;23738;50.422;18.758;2022-08-14T06:22:59;28.15;;;21.35;;
37903;SDS011;23738;50.422;18.758;2022-08-14T06:25:26;21.37;;;19.15;;
37903;SDS011;23738;50.422;18.758;2022-08-14T06:27:52;21.05;;;18.40;;
37903;SDS011;23738;50.422;18.758;2022-08-14T06:30:19;23.27;;;18.85;;
37903;SDS011;23738;50.422;18.758;2022-08-14T06:32:49;22.32;;;18.75;;
37903;SDS011;23738;50.422;18.758;2022-08-14T06:35:15;19.67;;;17.75;;
37903;SDS011;23738;50.422;18.758;2022-08-14T06:37:45;20.62;;;18.32;;
37903;SDS011;23738;50.422;18.758;2022-08-14T06:40:14;22.07;;;17.65;;
37903;SDS011;23738;50.422;18.758;2022-08-14T06:42:44;17.40;;;15.75;;
37903;SDS011;23738;50.422;18.758;2022-08-14T06:45:09;19.45;;;16.42;;
37903;SDS011;23738;50.422;18.758;2022-08-14T06:47:36;21.85;;;16.93;;
37903;SDS011;23738;50.422;18.758;2022-08-14T06:50:06;20.05;;;17.95;;
37903;SDS011;23738;50.422;18.758;2022-08-14T06:52:36;19.60;;;17.65;;
37903;SDS011;23738;50.422;18.758;2022-08-14T06:55:04;19.60;;;16.82;;
37903;SDS011;23738;50.422;18.758;2022-08-14T06:57:38;18.07;;;16.12;;
37903;SDS011;23738;50.422;18.758;2022-08-14T07:00:10;23.07;;;17.30;;
37903;SDS011;23738;50.422;18.758;2022-08-14T07:02:48;21.15;;;19.00;;
37903;SDS011;23738;50.422;18.758;2022-08-14T07:05:33;21.30;;;19.05;;
37903;SDS011;23738;50.422;18.758;2022-08-14T07:10:51;22.90;;;17.40;;
37903;SDS011;23738;50.422;18.758;2022-08-14T07:13:20;17.17;;;15.63;;
37903;SDS011;23738;50.422;18.758;2022-08-14T07:15:47;16.35;;;14.65;;
37903;SDS011;23738;50.422;18.758;2022-08-14T07:18:22;17.48;;;16.00;;
37903;SDS011;23738;50.422;18.758;2022-08-14T07:20:51;17.52;;;15.78;;
37903;SDS011;23738;50.422;18.758;2022-08-14T07:23:18;17.02;;;15.50;;
37903;SDS011;23738;50.422;18.758;2022-08-14T07:25:47;16.15;;;14.73;;
37903;SDS011;23738;50.422;18.758;2022-08-14T07:28:27;15.48;;;14.18;;
37903;SDS011;23738;50.422;18.758;2022-08-14T07:30:59;15.35;;;14.10;;
37903;SDS011;23738;50.422;18.758;2022-08-14T07:33:30;16.10;;;14.65;;
37903;SDS011;23738;50.422;18.758;2022-08-14T07:36:00;15.43;;;14.03;;
37903;SDS011;23738;50.422;18.758;2022-08-14T07:38:29;15.83;;;14.45;;
37903;SDS011;23738;50.422;18.758;2022-08-14T07:40:55;14.18;;;12.98;;
37903;SDS011;23738;50.422;18.758;2022-08-14T07:43:23;12.70;;;11.33;;
37903;SDS011;23738;50.422;18.758;2022-08-14T07:45:49;12.53;;;11.53;;
37903;SDS011;23738;50.422;18.758;2022-08-14T07:48:15;11.55;;;10.45;;
37903;SDS011;23738;50.422;18.758;2022-08-14T07:50:41;10.75;;;9.75;;
37903;SDS011;23738;50.422;18.758;2022-08-14T07:53:07;11.35;;;10.45;;
37903;SDS011;23738;50.422;18.758;2022-08-14T07:55:34;12.90;;;9.78;;
37903;SDS011;23738;50.422;18.758;2022-08-14T07:58:01;8.80;;;8.08;;
37903;SDS011;23738;50.422;18.758;2022-08-14T08:00:27;8.65;;;7.92;;
37903;SDS011;23738;50.422;18.758;2022-08-14T08:02:55;8.10;;;7.45;;
37903;SDS011;23738;50.422;18.758;2022-08-14T08:05:22;7.67;;;7.17;;
37903;SDS011;23738;50.422;18.758;2022-08-14T08:07:50;7.50;;;6.80;;
37903;SDS011;23738;50.422;18.758;2022-08-14T08:10:20;6.35;;;5.75;;
37903;SDS011;23738;50.422;18.758;2022-08-14T08:13:03;5.40;;;5.00;;
37903;SDS011;23738;50.422;18.758;2022-08-14T08:15:33;4.30;;;3.90;;
37903;SDS011;23738;50.422;18.758;2022-08-14T08:18:03;4.33;;;4.03;;
37903;SDS011;23738;50.422;18.758;2022-08-14T08:20:34;4.83;;;4.45;;
37903;SDS011;23738;50.422;18.758;2022-08-14T08:23:01;4.47;;;4.08;;
37903;SDS011;23738;50.422;18.758;2022-08-14T08:25:31;4.30;;;4.00;;
37903;SDS011;23738;50.422;18.758;2022-08-14T08:28:00;3.75;;;3.45;;
37903;SDS011;23738;50.422;18.758;2022-08-14T08:30:33;4.22;;;3.83;;
37903;SDS011;23738;50.422;18.758;2022-08-14T08:33:02;4.15;;;3.85;;
37903;SDS011;23738;50.422;18.758;2022-08-14T08:35:30;4.25;;;3.95;;
37903;SDS011;23738;50.422;18.758;2022-08-14T08:38:03;4.33;;;4.03;;
37903;SDS011;23738;50.422;18.758;2022-08-14T08:40:48;5.28;;;4.87;;
37903;SDS011;23738;50.422;18.758;2022-08-14T08:48:25;5.22;;;4.85;;
37903;SDS011;23738;50.422;18.758;2022-08-14T08:50:59;6.10;;;5.70;;
37903;SDS011;23738;50.422;18.758;2022-08-14T08:53:30;6.03;;;5.37;;
37903;SDS011;23738;50.422;18.758;2022-08-14T08:55:58;6.15;;;5.60;;
37903;SDS011;23738;50.422;18.758;2022-08-14T08:58:25;5.65;;;5.25;;
37903;SDS011;23738;50.422;18.758;2022-08-14T09:00:52;4.47;;;4.17;;
37903;SDS011;23738;50.422;18.758;2022-08-14T09:03:25;5.83;;;5.20;;
37903;SDS011;23738;50.422;18.758;2022-08-14T09:05:57;5.10;;;4.70;;
37903;SDS011;23738;50.422;18.758;2022-08-14T09:08:31;5.35;;;4.95;;
37903;SDS011;23738;50.422;18.758;2022-08-14T09:11:01;4.87;;;4.47;;
37903;SDS011;23738;50.422;18.758;2022-08-14T09:13:33;4.55;;;4.25;;
37903;SDS011;23738;50.422;18.758;2022-08-14T09:16:00;4.85;;;4.55;;
37903;SDS011;23738;50.422;18.758;2022-08-14T09:18:26;5.75;;;5.25;;
37903;SDS011;23738;50.422;18.758;2022-08-14T09:20:54;5.37;;;4.97;;
37903;SDS011;23738;50.422;18.758;2022-08-14T09:23:22;6.30;;;5.90;;
37903;SDS011;23738;50.422;18.758;2022-08-14T09:25:49;6.90;;;6.40;;
37903;SDS011;23738;50.422;18.758;2022-08-14T09:28:17;6.67;;;6.20;;
37903;SDS011;23738;50.422;18.758;2022-08-14T09:30:48;5.75;;;5.37;;
37903;SDS011;23738;50.422;18.758;2022-08-14T09:36:22;7.15;;;6.65;;
37903;SDS011;23738;50.422;18.758;2022-08-14T09:39:40;7.15;;;6.55;;
37903;SDS011;23738;50.422;18.758;2022-08-14T09:42:43;7.20;;;6.60;;
37903;SDS011;23738;50.422;18.758;2022-08-14T09:45:23;6.47;;;5.97;;
37903;SDS011;23738;50.422;18.758;2022-08-14T09:48:01;6.40;;;5.90;;
37903;SDS011;23738;50.422;18.758;2022-08-14T09:50:32;6.35;;;5.85;;
37903;SDS011;23738;50.422;18.758;2022-08-14T09:53:10;7.20;;;6.53;;
37903;SDS011;23738;50.422;18.758;2022-08-14T09:56:44;6.50;;;5.33;;
37903;SDS011;23738;50.422;18.758;2022-08-14T10:01:45;6.35;;;5.85;;
37903;SDS011;23738;50.422;18.758;2022-08-14T10:04:19;6.22;;;5.72;;
37903;SDS011;23738;50.422;18.758;2022-08-14T10:06:50;6.03;;;5.62;;
37903;SDS011;23738;50.422;18.758;2022-08-14T10:09:16;6.37;;;5.80;;
37903;SDS011;23738;50.422;18.758;2022-08-14T10:11:52;7.15;;;6.15;;
37903;SDS011;23738;50.422;18.758;2022-08-14T10:14:22;6.78;;;6.17;;
37903;SDS011;23738;50.422;18.758;2022-08-14T10:16:55;6.62;;;6.03;;
37903;SDS011;23738;50.422;18.758;2022-08-14T10:19:23;6.22;;;5.83;;
37903;SDS011;23738;50.422;18.758;2022-08-14T10:24:28;6.33;;;5.92;;
37903;SDS011;23738;50.422;18.758;2022-08-14T10:27:18;5.90;;;5.50;;
37903;SDS011;23738;50.422;18.758;2022-08-14T10:29:49;6.03;;;5.55;;
37903;SDS011;23738;50.422;18.758;2022-08-14T10:32:21;6.17;;;5.33;;
37903;SDS011;23738;50.422;18.758;2022-08-14T10:34:47;5.97;;;5.58;;
37903;SDS011;23738;50.422;18.758;2022-08-14T10:37:15;6.10;;;5.58;;
37903;SDS011;23738;50.422;18.758;2022-08-14T10:39:43;5.97;;;5.50;;
37903;SDS011;23738;50.422;18.758;2022-08-14T10:42:33;5.72;;;5.22;;
37903;SDS011;23738;50.422;18.758;2022-08-14T10:45:16;5.85;;;5.45;;
37903;SDS011;23738;50.422;18.758;2022-08-14T10:47:49;5.80;;;5.22;;
37903;SDS011;23738;50.422;18.758;2022-08-14T10:50:27;5.47;;;5.08;;
37903;SDS011;23738;50.422;18.758;2022-08-14T10:53:02;7.45;;;5.12;;
37903;SDS011;23738;50.422;18.758;2022-08-14T10:55:36;4.25;;;3.85;;
37903;SDS011;23738;50.422;18.758;2022-08-14T10:58:03;3.70;;;3.40;;
37903;SDS011;23738;50.422;18.758;2022-08-14T11:00:32;3.10;;;2.27;;
37903;SDS011;23738;50.422;18.758;2022-08-14T11:02:59;3.58;;;1.98;;
37903;SDS011;23738;50.422;18.758;2022-08-14T11:05:47;2.65;;;2.42;;
37903;SDS011;23738;50.422;18.758;2022-08-14T11:08:13;2.15;;;2.05;;
37903;SDS011;23738;50.422;18.758;2022-08-14T11:10:56;2.20;;;2.00;;
37903;SDS011;23738;50.422;18.758;2022-08-14T11:13:28;2.40;;;2.20;;
37903;SDS011;23738;50.422;18.758;2022-08-14T11:15:56;2.12;;;2.02;;
37903;SDS011;23738;50.422;18.758;2022-08-14T11:18:24;2.52;;;2.33;;
37903;SDS011;23738;50.422;18.758;2022-08-14T11:20:53;2.52;;;2.33;;
37903;SDS011;23738;50.422;18.758;2022-08-14T11:23:24;4.28;;;3.87;;
37903;SDS011;23738;50.422;18.758;2022-08-14T11:25:58;14.47;;;8.25;;
37903;SDS011;23738;50.422;18.758;2022-08-14T11:28:25;107.03;;;50.12;;
37903;SDS011;23738;50.422;18.758;2022-08-14T11:30:56;8.95;;;7.97;;
37903;SDS011;23738;50.422;18.758;2022-08-14T11:33:25;27.45;;;16.70;;
37903;SDS011;23738;50.422;18.758;2022-08-14T11:35:54;5.83;;;4.97;;
37903;SDS011;23738;50.422;18.758;2022-08-14T11:38:21;12.63;;;11.33;;
37903;SDS011;23738;50.422;18.758;2022-08-14T11:40:47;4.65;;;4.25;;
37903;SDS011;23738;50.422;18.758;2022-08-14T11:43:13;3.30;;;3.10;;
37903;SDS011;23738;50.422;18.758;2022-08-14T11:45:43;3.65;;;3.35;;
37903;SDS011;23738;50.422;18.758;2022-08-14T11:48:15;3.00;;;2.80;;
37903;SDS011;23738;50.422;18.758;2022-08-14T11:50:47;2.80;;;2.60;;
37903;SDS011;23738;50.422;18.758;2022-08-14T11:53:28;3.08;;;2.87;;
37903;SDS011;23738;50.422;18.758;2022-08-14T11:55:57;2.92;;;2.72;;
37903;SDS011;23738;50.422;18.758;2022-08-14T11:58:28;2.33;;;2.12;;
37903;SDS011;23738;50.422;18.758;2022-08-14T12:00:58;2.50;;;2.30;;
37903;SDS011;23738;50.422;18.758;2022-08-14T12:06:12;3.12;;;2.92;;
37903;SDS011;23738;50.422;18.758;2022-08-14T12:08:41;2.90;;;2.70;;
37903;SDS011;23738;50.422;18.758;2022-08-14T12:11:08;2.75;;;2.55;;
37903;SDS011;23738;50.422;18.758;2022-08-14T12:13:37;4.80;;;3.00;;
37903;SDS011;23738;50.422;18.758;2022-08-14T12:16:09;2.87;;;2.67;;
37903;SDS011;23738;50.422;18.758;2022-08-14T12:18:38;3.10;;;2.80;;
37903;SDS011;23738;50.422;18.758;2022-08-14T12:23:59;4.53;;;4.12;;
37903;SDS011;23738;50.422;18.758;2022-08-14T12:26:33;2.55;;;2.35;;
37903;SDS011;23738;50.422;18.758;2022-08-14T12:29:07;2.77;;;2.58;;
37903;SDS011;23738;50.422;18.758;2022-08-14T12:31:38;2.62;;;2.42;;
37903;SDS011;23738;50.422;18.758;2022-08-14T12:34:11;3.37;;;3.17;;
37903;SDS011;23738;50.422;18.758;2022-08-14T12:36:39;3.55;;;3.27;;
37903;SDS011;23738;50.422;18.758;2022-08-14T12:39:21;2.90;;;2.70;;
37903;SDS011;23738;50.422;18.758;2022-08-14T12:41:51;2.70;;;2.50;;
37903;SDS011;23738;50.422;18.758;2022-08-14T12:44:31;3.08;;;2.75;;
37903;SDS011;23738;50.422;18.758;2022-08-14T12:47:09;2.70;;;2.50;;
37903;SDS011;23738;50.422;18.758;2022-08-14T12:49:47;3.10;;;2.90;;
37903;SDS011;23738;50.422;18.758;2022-08-14T12:52:35;3.52;;;2.70;;
37903;SDS011;23738;50.422;18.758;2022-08-14T12:55:08;2.67;;;2.47;;
37903;SDS011;23738;50.422;18.758;2022-08-14T12:57:44;3.05;;;2.85;;
37903;SDS011;23738;50.422;18.758;2022-08-14T13:02:44;3.20;;;2.90;;
37903;SDS011;23738;50.422;18.758;2022-08-14T13:05:14;3.22;;;3.02;;
37903;SDS011;23738;50.422;18.758;2022-08-14T13:07:40;3.02;;;2.75;;
37903;SDS011;23738;50.422;18.758;2022-08-14T13:10:11;2.83;;;2.62;;
37903;SDS011;23738;50.422;18.758;2022-08-14T13:12:41;3.37;;;3.08;;
37903;SDS011;23738;50.422;18.758;2022-08-14T13:15:09;4.50;;;3.40;;
37903;SDS011;23738;50.422;18.758;2022-08-14T13:17:44;4.00;;;3.60;;
37903;SDS011;23738;50.422;18.758;2022-08-14T13:20:24;3.67;;;3.47;;
37903;SDS011;23738;50.422;18.758;2022-08-14T13:22:53;4.40;;;4.10;;
37903;SDS011;23738;50.422;18.758;2022-08-14T13:25:20;4.95;;;4.55;;
37903;SDS011;23738;50.422;18.758;2022-08-14T13:27:52;5.08;;;4.30;;
37903;SDS011;23738;50.422;18.758;2022-08-14T13:30:22;4.62;;;4.22;;
37903;SDS011;23738;50.422;18.758;2022-08-14T13:32:51;6.20;;;4.30;;
37903;SDS011;23738;50.422;18.758;2022-08-14T13:35:19;5.28;;;4.87;;
37903;SDS011;23738;50.422;18.758;2022-08-14T13:37:46;4.97;;;4.67;;
37903;SDS011;23738;50.422;18.758;2022-08-14T13:40:17;5.22;;;4.83;;
37903;SDS011;23738;50.422;18.758;2022-08-14T13:42:46;5.80;;;5.30;;
37903;SDS011;23738;50.422;18.758;2022-08-14T13:45:15;7.85;;;5.10;;
37903;SDS011;23738;50.422;18.758;2022-08-14T13:47:42;4.67;;;4.28;;
37903;SDS011;23738;50.422;18.758;2022-08-14T13:50:10;5.33;;;4.47;;
37903;SDS011;23738;50.422;18.758;2022-08-14T13:52:43;5.10;;;4.70;;
37903;SDS011;23738;50.422;18.758;2022-08-14T13:55:17;5.25;;;4.78;;
37903;SDS011;23738;50.422;18.758;2022-08-14T13:57:48;5.08;;;4.78;;
37903;SDS011;23738;50.422;18.758;2022-08-14T14:00:15;5.72;;;5.33;;
37903;SDS011;23738;50.422;18.758;2022-08-14T14:02:44;5.35;;;4.90;;
37903;SDS011;23738;50.422;18.758;2022-08-14T14:05:15;5.80;;;5.28;;
37903;SDS011;23738;50.422;18.758;2022-08-14T14:07:50;5.28;;;4.87;;
37903;SDS011;23738;50.422;18.758;2022-08-14T14:10:16;5.47;;;5.08;;
37903;SDS011;23738;50.422;18.758;2022-08-14T14:12:46;6.20;;;5.47;;
37903;SDS011;23738;50.422;18.758;2022-08-14T14:15:14;6.05;;;5.55;;
37903;SDS011;23738;50.422;18.758;2022-08-14T14:17:44;5.62;;;5.15;;
37903;SDS011;23738;50.422;18.758;2022-08-14T14:20:15;4.83;;;4.50;;
37903;SDS011;23738;50.422;18.758;2022-08-14T14:22:44;5.25;;;4.95;;
37903;SDS011;23738;50.422;18.758;2022-08-14T14:25:14;5.42;;;5.03;;
37903;SDS011;23738;50.422;18.758;2022-08-14T14:27:42;5.47;;;5.08;;
37903;SDS011;23738;50.422;18.758;2022-08-14T14:30:13;6.97;;;6.28;;
37903;SDS011;23738;50.422;18.758;2022-08-14T14:32:41;8.25;;;7.03;;
37903;SDS011;23738;50.422;18.758;2022-08-14T14:35:11;7.50;;;6.90;;
37903;SDS011;23738;50.422;18.758;2022-08-14T14:37:45;6.58;;;6.08;;
37903;SDS011;23738;50.422;18.758;2022-08-14T14:40:13;6.55;;;6.05;;
37903;SDS011;23738;50.422;18.758;2022-08-14T14:42:44;6.47;;;5.97;;
37903;SDS011;23738;50.422;18.758;2022-08-14T14:45:13;7.35;;;6.83;;
37903;SDS011;23738;50.422;18.758;2022-08-14T14:47:49;7.85;;;5.60;;
37903;SDS011;23738;50.422;18.758;2022-08-14T14:50:15;5.90;;;5.28;;
37903;SDS011;23738;50.422;18.758;2022-08-14T14:52:42;5.87;;;5.40;;
37903;SDS011;23738;50.422;18.758;2022-08-14T14:55:09;6.70;;;6.20;;
37903;SDS011;23738;50.422;18.758;2022-08-14T14:57:36;6.40;;;5.70;;
37903;SDS011;23738;50.422;18.758;2022-08-14T15:00:05;6.15;;;5.72;;
37903;SDS011;23738;50.422;18.758;2022-08-14T15:02:36;10.30;;;5.58;;
37903;SDS011;23738;50.422;18.758;2022-08-14T15:05:08;6.55;;;6.05;;
37903;SDS011;23738;50.422;18.758;2022-08-14T15:07:38;6.85;;;6.30;;
37903;SDS011;23738;50.422;18.758;2022-08-14T15:10:06;5.87;;;5.37;;